Terminal Aerodrome Forecast
Issued by NWS

Home | Current Version | Previous Version | Text Only | Print | Product List | Glossary On
Versions: 1 2 3 4 5 6 7 8 9 10 11 12 13
308
FTUS44 KSJT 052320
TAFJCT
TAF
KJCT 052320Z 0600/0624 22011KT P6SM FEW250
     FM060300 VRB06KT P6SM FEW250
     FM061500 33014G23KT P6SM FEW250=

USA.gov is the U.S. government's official web portal to all federal, state and local government web resources and services.